createdAt,value
2024-02-24T00:01:49.233Z,81.94
2024-02-24T00:04:17.258Z,82.02
2024-02-24T00:06:45.219Z,81.98
2024-02-24T00:09:13.340Z,82.07
2024-02-24T00:11:41.581Z,81.89
2024-02-24T00:14:09.796Z,81.95
2024-02-24T00:16:37.990Z,82.12
2024-02-24T00:19:06.872Z,82.27
2024-02-24T00:21:34.860Z,82.34
2024-02-24T00:24:03.091Z,82.24
2024-02-24T00:26:31.135Z,82.23
2024-02-24T00:28:59.282Z,82.06
2024-02-24T00:31:27.356Z,81.98
2024-02-24T00:33:55.545Z,82.01
2024-02-24T00:36:23.664Z,82.12
2024-02-24T00:38:51.715Z,81.86
2024-02-24T00:41:19.887Z,81.84
2024-02-24T00:43:47.940Z,81.77
2024-02-24T00:46:16.119Z,81.72
2024-02-24T00:48:44.207Z,81.85
2024-02-24T00:51:12.284Z,81.82
2024-02-24T00:53:40.390Z,81.74
2024-02-24T00:56:08.397Z,81.60
2024-02-24T00:58:36.432Z,81.76
2024-02-24T01:01:04.760Z,81.55
2024-02-24T01:03:32.859Z,81.43
2024-02-24T01:06:01.266Z,81.43
2024-02-24T01:08:29.545Z,81.65
2024-02-24T01:11:24.763Z,81.53
2024-02-24T01:13:55.352Z,81.29
2024-02-24T01:16:23.590Z,81.52
2024-02-24T01:18:51.583Z,81.48
2024-02-24T01:21:19.750Z,81.30
2024-02-24T01:23:47.771Z,81.15
2024-02-24T01:26:15.723Z,81.06
2024-02-24T01:28:43.830Z,81.02
2024-02-24T01:31:11.712Z,81.11
2024-02-24T01:33:39.729Z,80.84
2024-02-24T01:36:07.915Z,80.96
2024-02-24T01:38:36.210Z,80.97
2024-02-24T01:41:04.504Z,80.76
2024-02-24T01:43:34.842Z,80.89
2024-02-24T01:46:03.351Z,80.80
2024-02-24T01:48:33.106Z,80.84
2024-02-24T01:51:01.198Z,80.85
2024-02-24T01:53:31.429Z,80.67
2024-02-24T01:56:00.964Z,80.51
2024-02-24T01:58:30.390Z,80.26
2024-02-24T02:00:59.100Z,80.26
2024-02-24T02:03:27.914Z,80.67
2024-02-24T02:05:56.660Z,80.71
2024-02-24T02:08:24.706Z,80.40
2024-02-24T02:10:56.914Z,80.37
2024-02-24T02:13:25.533Z,80.50
2024-02-24T02:15:55.443Z,80.50
2024-02-24T02:18:23.650Z,80.57
2024-02-24T02:20:53.057Z,80.64
2024-02-24T02:23:21.294Z,80.81
2024-02-24T02:25:49.443Z,80.77
2024-02-24T02:28:17.545Z,81.17
2024-02-24T02:30:45.431Z,81.32
2024-02-24T02:33:13.594Z,81.27
2024-02-24T02:35:41.658Z,81.31
2024-02-24T02:38:11.751Z,81.07
2024-02-24T02:40:39.920Z,81.24
2024-02-24T02:43:07.951Z,81.05
2024-02-24T02:45:36.040Z,81.33
2024-02-24T02:48:04.553Z,80.99
2024-02-24T02:50:32.675Z,80.88
2024-02-24T02:53:00.713Z,81.06
2024-02-24T02:55:28.829Z,81.09
2024-02-24T02:57:56.965Z,81.00
2024-02-24T03:00:25.505Z,80.75
2024-02-24T03:02:53.567Z,80.88
2024-02-24T03:05:21.745Z,80.79
2024-02-24T03:07:49.884Z,80.94
2024-02-24T03:10:17.929Z,80.96
2024-02-24T03:12:45.941Z,80.70
2024-02-24T03:15:14.070Z,80.58
2024-02-24T03:17:42.147Z,80.74
2024-02-24T03:20:10.952Z,80.29
2024-02-24T03:22:39.666Z,80.05
2024-02-24T03:25:09.278Z,80.04
2024-02-24T03:27:37.404Z,79.93
2024-02-24T03:30:06.158Z,79.87
2024-02-24T03:32:34.227Z,79.72
2024-02-24T03:35:02.259Z,79.87
2024-02-24T03:37:30.166Z,79.94
2024-02-24T03:39:58.207Z,80.07
2024-02-24T03:42:26.243Z,80.05
2024-02-24T03:44:54.457Z,79.95
2024-02-24T03:47:22.589Z,80.05
2024-02-24T03:49:50.662Z,79.84
2024-02-24T03:52:18.633Z,79.72
2024-02-24T03:54:46.624Z,79.87
2024-02-24T03:57:14.557Z,79.96
2024-02-24T03:59:42.730Z,79.97
2024-02-24T04:02:10.678Z,80.08
2024-02-24T04:04:38.684Z,80.10
2024-02-24T04:07:06.970Z,80.19
2024-02-24T04:09:34.946Z,80.17
2024-02-24T04:12:03.854Z,80.38
2024-02-24T04:14:31.985Z,80.18
2024-02-24T04:16:59.926Z,80.10
2024-02-24T04:19:28.296Z,80.38
2024-02-24T04:21:56.226Z,80.12
2024-02-24T04:24:24.954Z,80.16
2024-02-24T04:26:53.066Z,79.95
2024-02-24T04:29:21.340Z,79.77
2024-02-24T04:31:49.343Z,79.65
2024-02-24T04:34:17.323Z,79.68
2024-02-24T04:36:45.406Z,79.82
2024-02-24T04:39:13.425Z,79.72
2024-02-24T04:41:41.571Z,79.68
2024-02-24T04:44:09.602Z,79.79
2024-02-24T04:46:39.810Z,79.75
2024-02-24T04:49:08.061Z,79.66
2024-02-24T04:51:36.138Z,79.73
2024-02-24T04:54:04.265Z,79.38
2024-02-24T04:56:32.496Z,79.21
2024-02-24T04:59:00.468Z,79.20
2024-02-24T05:01:28.443Z,79.21
2024-02-24T05:03:56.573Z,79.54
2024-02-24T05:06:24.544Z,79.52
2024-02-24T05:08:52.806Z,79.71
2024-02-24T05:11:20.880Z,79.62
2024-02-24T05:13:48.888Z,79.61
2024-02-24T05:16:16.888Z,79.47
2024-02-24T05:18:44.912Z,79.35
2024-02-24T05:21:22.969Z,79.11
2024-02-24T05:23:51.335Z,78.97
2024-02-24T05:26:26.182Z,79.01
2024-02-24T05:28:54.616Z,79.25
2024-02-24T05:31:22.613Z,79.47
2024-02-24T05:33:56.119Z,79.47
2024-02-24T05:36:24.390Z,79.37
2024-02-24T05:38:52.410Z,79.38
2024-02-24T05:41:20.578Z,79.38
2024-02-24T05:43:48.640Z,79.07
2024-02-24T05:46:17.711Z,79.09
2024-02-24T05:48:47.044Z,78.92
2024-02-24T05:51:15.657Z,78.78
2024-02-24T05:53:43.931Z,78.86
2024-02-24T05:56:11.906Z,79.03
2024-02-24T05:58:39.985Z,79.01
2024-02-24T06:01:08.127Z,79.21
2024-02-24T06:03:36.566Z,79.03
2024-02-24T06:06:04.967Z,78.97
2024-02-24T06:08:33.863Z,78.88
2024-02-24T06:11:01.944Z,78.65
2024-02-24T06:13:30.016Z,78.41
2024-02-24T06:15:58.119Z,78.32
2024-02-24T06:18:26.415Z,78.06
2024-02-24T06:20:54.620Z,78.16
2024-02-24T06:23:22.753Z,78.21
2024-02-24T06:25:50.729Z,78.32
2024-02-24T06:28:18.769Z,78.36
2024-02-24T06:30:46.794Z,78.41
2024-02-24T06:33:15.245Z,78.19
2024-02-24T06:35:43.503Z,77.91
2024-02-24T06:38:11.686Z,77.97
2024-02-24T06:40:45.651Z,78.03
2024-02-24T06:43:14.809Z,78.33
2024-02-24T06:45:42.882Z,78.44
2024-02-24T06:48:11.006Z,78.53
2024-02-24T06:50:39.167Z,78.51
2024-02-24T06:53:07.130Z,78.46
2024-02-24T06:55:35.151Z,78.27
2024-02-24T06:58:03.135Z,77.99
2024-02-24T07:00:31.199Z,77.87
2024-02-24T07:02:59.241Z,77.82
2024-02-24T07:05:27.410Z,77.75
2024-02-24T07:07:56.467Z,77.78
2024-02-24T07:10:24.473Z,77.88
2024-02-24T07:12:52.442Z,77.88
2024-02-24T07:15:21.010Z,77.73
2024-02-24T07:17:49.014Z,77.76
2024-02-24T07:20:17.213Z,77.56
2024-02-24T07:22:49.868Z,77.55
2024-02-24T07:25:18.152Z,77.22
2024-02-24T07:27:46.177Z,77.08
2024-02-24T07:30:14.562Z,77.00
2024-02-24T07:32:43.925Z,76.89
2024-02-24T07:35:13.813Z,77.20
2024-02-24T07:37:41.769Z,77.36
2024-02-24T07:40:10.321Z,77.26
2024-02-24T07:42:38.436Z,77.16
2024-02-24T07:45:08.336Z,77.02
2024-02-24T07:47:36.511Z,76.58
2024-02-24T07:50:05.198Z,76.32
2024-02-24T07:52:33.415Z,75.80
2024-02-24T07:55:01.375Z,75.45
2024-02-24T07:57:29.491Z,75.48
2024-02-24T07:59:57.742Z,75.66
2024-02-24T08:02:25.937Z,75.34
2024-02-24T08:04:54.068Z,74.99
2024-02-24T08:07:22.091Z,75.03
2024-02-24T08:09:50.365Z,74.60
2024-02-24T08:12:18.339Z,74.17
2024-02-24T08:14:46.405Z,73.54
2024-02-24T08:17:15.160Z,73.33
2024-02-24T08:19:43.837Z,72.74
2024-02-24T08:22:12.089Z,72.55
2024-02-24T08:24:40.232Z,72.67
2024-02-24T08:27:08.285Z,72.49
2024-02-24T08:29:36.212Z,72.36
2024-02-24T08:32:04.540Z,71.89
2024-02-24T08:34:32.748Z,70.62
2024-02-24T08:37:01.807Z,70.05
2024-02-24T08:39:31.471Z,70.28
2024-02-24T08:42:03.537Z,70.71
2024-02-24T08:44:31.854Z,69.07
2024-02-24T08:47:00.241Z,69.48
2024-02-24T08:49:29.609Z,69.57
2024-02-24T08:51:57.731Z,68.66
2024-02-24T08:54:25.676Z,68.67
2024-02-24T08:56:53.764Z,68.10
2024-02-24T08:59:21.876Z,67.62
2024-02-24T09:01:53.979Z,67.35
2024-02-24T09:04:22.155Z,67.87
2024-02-24T09:06:50.454Z,67.54
2024-02-24T09:09:18.544Z,66.82
2024-02-24T09:11:48.241Z,66.61
2024-02-24T09:14:16.858Z,66.99
2024-02-24T09:16:44.824Z,66.41
2024-02-24T09:19:13.403Z,66.37
2024-02-24T09:21:45.832Z,66.21
2024-02-24T09:24:14.179Z,66.80
2024-02-24T09:26:42.215Z,65.69
2024-02-24T09:29:10.240Z,65.03
2024-02-24T09:31:39.060Z,64.40
2024-02-24T09:34:09.030Z,64.45
2024-02-24T09:36:40.510Z,64.70
2024-02-24T09:39:08.535Z,64.45
2024-02-24T09:41:36.485Z,62.24
2024-02-24T09:44:05.841Z,64.10
2024-02-24T09:46:37.920Z,63.23
2024-02-24T09:49:07.274Z,63.69
2024-02-24T09:51:36.554Z,63.08
2024-02-24T09:54:05.010Z,61.83
2024-02-24T09:56:35.593Z,61.98
2024-02-24T09:59:05.060Z,62.38
2024-02-24T10:01:36.936Z,61.82
2024-02-24T10:04:05.506Z,61.42
2024-02-24T10:06:36.410Z,61.82
2024-02-24T10:09:05.888Z,61.17
2024-02-24T10:11:37.927Z,59.99
2024-02-24T10:14:09.613Z,60.15
2024-02-24T10:16:38.262Z,60.67
2024-02-24T10:19:11.033Z,60.53
2024-02-24T10:21:39.316Z,59.98
2024-02-24T10:24:07.342Z,59.52
2024-02-24T10:26:35.482Z,59.19
2024-02-24T10:29:08.362Z,59.14
2024-02-24T10:31:36.436Z,58.88
2024-02-24T10:34:05.720Z,59.01
2024-02-24T10:36:34.720Z,58.69
2024-02-24T10:39:03.098Z,59.15
2024-02-24T10:41:31.599Z,58.69
2024-02-24T10:44:09.923Z,57.94
2024-02-24T10:46:43.204Z,57.77
2024-02-24T10:49:12.916Z,57.33
2024-02-24T10:51:47.167Z,56.05
2024-02-24T10:54:20.930Z,55.63
2024-02-24T10:56:54.625Z,55.75
2024-02-24T10:59:32.170Z,55.23
2024-02-24T11:02:00.998Z,55.61
2024-02-24T11:04:29.798Z,55.05
2024-02-24T11:06:58.843Z,55.09
2024-02-24T11:09:37.407Z,54.67
2024-02-24T11:12:08.291Z,53.97
2024-02-24T11:14:47.557Z,54.63
2024-02-24T11:17:53.169Z,54.46
2024-02-24T11:20:40.318Z,53.69
2024-02-24T11:23:33.157Z,53.16
2024-02-24T11:26:10.567Z,53.75
2024-02-24T11:28:39.931Z,52.63
2024-02-24T11:31:08.285Z,51.90
2024-02-24T11:33:39.153Z,51.58
2024-02-24T11:36:08.123Z,51.12
2024-02-24T11:38:36.189Z,50.46
2024-02-24T11:41:05.564Z,50.55
2024-02-24T11:43:34.236Z,50.41
2024-02-24T11:46:03.673Z,49.50
2024-02-24T11:48:32.472Z,49.38
2024-02-24T11:51:00.935Z,49.48
2024-02-24T11:53:31.281Z,49.90
2024-02-24T11:55:59.539Z,49.56
2024-02-24T11:58:28.122Z,49.88
2024-02-24T12:00:56.776Z,49.85
2024-02-24T12:03:25.582Z,49.27
2024-02-24T12:05:54.070Z,49.23
2024-02-24T12:08:23.533Z,48.68
2024-02-24T12:10:51.782Z,47.87
2024-02-24T12:13:20.318Z,48.05
2024-02-24T12:15:48.578Z,47.87
2024-02-24T12:18:16.635Z,47.53
2024-02-24T12:20:49.570Z,48.08
2024-02-24T12:23:18.381Z,48.23
2024-02-24T12:25:50.426Z,47.02
2024-02-24T12:28:19.738Z,47.94
2024-02-24T12:30:47.713Z,46.95
2024-02-24T12:33:18.617Z,47.85
2024-02-24T12:35:49.255Z,47.55
2024-02-24T12:38:20.324Z,47.94
2024-02-24T12:40:48.519Z,47.97
2024-02-24T12:43:16.453Z,48.02
2024-02-24T12:45:45.490Z,48.59
2024-02-24T12:48:13.776Z,49.28
2024-02-24T12:50:42.224Z,49.00
2024-02-24T12:53:10.503Z,48.51
2024-02-24T12:55:39.132Z,48.10
2024-02-24T12:58:07.191Z,48.27
2024-02-24T13:00:35.291Z,48.39
2024-02-24T13:03:03.683Z,47.58
2024-02-24T13:05:32.223Z,47.15
2024-02-24T13:08:00.863Z,47.03
2024-02-24T13:10:28.974Z,46.69
2024-02-24T13:12:58.266Z,46.76
2024-02-24T13:15:29.657Z,46.56
2024-02-24T13:17:57.910Z,46.15
2024-02-24T13:20:26.091Z,45.17
2024-02-24T13:22:54.269Z,45.52
2024-02-24T13:25:24.190Z,45.24
2024-02-24T13:27:52.374Z,45.26
2024-02-24T13:30:20.488Z,45.64
2024-02-24T13:32:49.881Z,44.83
2024-02-24T13:35:18.406Z,44.62
2024-02-24T13:37:46.779Z,44.82
2024-02-24T13:40:15.220Z,44.02
2024-02-24T13:42:43.499Z,43.81
2024-02-24T13:45:11.739Z,42.93
2024-02-24T13:47:39.882Z,42.54
2024-02-24T13:50:08.574Z,42.67
2024-02-24T13:52:37.484Z,42.54
2024-02-24T13:55:06.099Z,41.86
2024-02-24T13:57:34.214Z,41.90
2024-02-24T14:00:05.965Z,41.44
2024-02-24T14:02:34.307Z,41.60
2024-02-24T14:05:02.474Z,42.85
2024-02-24T14:07:31.563Z,42.86
2024-02-24T14:10:01.367Z,42.51
2024-02-24T14:12:30.341Z,42.67
2024-02-24T14:14:58.714Z,42.96
2024-02-24T14:17:29.567Z,42.18
2024-02-24T14:19:58.468Z,42.39
2024-02-24T14:22:27.236Z,42.35
2024-02-24T14:24:55.213Z,42.02
2024-02-24T14:27:23.700Z,42.50
2024-02-24T14:29:52.158Z,42.67
2024-02-24T14:32:20.323Z,41.98
2024-02-24T14:34:48.371Z,42.08
2024-02-24T14:37:16.729Z,42.29
2024-02-24T14:39:45.024Z,42.33
2024-02-24T14:42:13.192Z,42.58
2024-02-24T14:44:41.511Z,42.84
2024-02-24T14:47:09.573Z,42.87
2024-02-24T14:49:37.807Z,43.20
2024-02-24T14:52:09.919Z,43.23
2024-02-24T14:54:42.240Z,43.67
2024-02-24T14:57:13.613Z,44.14
2024-02-24T14:59:42.554Z,44.41
2024-02-24T15:02:13.483Z,44.64
2024-02-24T15:04:45.167Z,44.61
2024-02-24T15:07:13.167Z,44.50
2024-02-24T15:09:41.407Z,44.71
2024-02-24T15:12:09.710Z,44.72
2024-02-24T15:14:38.145Z,44.92
2024-02-24T15:17:06.223Z,44.83
2024-02-24T15:19:37.290Z,45.09
2024-02-24T15:22:05.319Z,45.09
2024-02-24T15:24:33.528Z,45.26
2024-02-24T15:27:01.999Z,45.44
2024-02-24T15:29:30.618Z,45.73
2024-02-24T15:31:58.784Z,45.84
2024-02-24T15:34:26.954Z,46.62
2024-02-24T15:36:54.843Z,46.61
2024-02-24T15:39:23.075Z,47.08
2024-02-24T15:41:52.055Z,47.01
2024-02-24T15:44:20.215Z,47.36
2024-02-24T15:46:48.421Z,47.45
2024-02-24T15:49:17.206Z,47.73
2024-02-24T15:51:45.279Z,47.73
2024-02-24T15:54:13.619Z,48.65
2024-02-24T15:56:41.699Z,49.03
2024-02-24T15:59:09.797Z,49.51
2024-02-24T16:01:38.003Z,49.72
2024-02-24T16:04:06.022Z,50.46
2024-02-24T16:06:34.130Z,50.75
2024-02-24T16:09:02.313Z,51.64
2024-02-24T16:11:30.449Z,51.03
2024-02-24T16:14:00.324Z,51.63
2024-02-24T16:16:28.584Z,52.20
2024-02-24T16:18:56.590Z,52.32
2024-02-24T16:21:24.716Z,52.54
2024-02-24T16:23:53.063Z,53.58
2024-02-24T16:26:21.337Z,54.03
2024-02-24T16:28:51.455Z,54.41
2024-02-24T16:31:19.565Z,54.51
2024-02-24T16:33:47.959Z,54.16
2024-02-24T16:36:16.132Z,55.39
2024-02-24T16:38:44.151Z,55.10
2024-02-24T16:41:12.464Z,55.35
2024-02-24T16:43:40.868Z,56.05
2024-02-24T16:46:08.787Z,54.92
2024-02-24T16:48:36.938Z,57.01
2024-02-24T16:51:05.207Z,56.30
2024-02-24T16:53:33.207Z,55.71
2024-02-24T16:56:01.165Z,56.91
2024-02-24T16:58:29.066Z,57.25
2024-02-24T17:00:57.186Z,56.73
2024-02-24T17:03:27.600Z,56.60
2024-02-24T17:05:55.802Z,56.46
2024-02-24T17:08:24.084Z,56.98
2024-02-24T17:10:52.668Z,57.72
2024-02-24T17:13:20.698Z,57.26
2024-02-24T17:15:48.781Z,57.45
2024-02-24T17:18:20.879Z,57.58
2024-02-24T17:20:51.936Z,59.46
2024-02-24T17:23:20.081Z,57.95
2024-02-24T17:25:48.355Z,58.24
2024-02-24T17:28:16.363Z,58.42
2024-02-24T17:30:44.530Z,59.27
2024-02-24T17:33:12.766Z,59.36
2024-02-24T17:35:41.237Z,59.64
2024-02-24T17:38:09.851Z,59.90
2024-02-24T17:40:38.312Z,59.82
2024-02-24T17:43:06.546Z,59.89
2024-02-24T17:45:34.778Z,59.61
2024-02-24T17:48:03.038Z,60.39
2024-02-24T17:50:31.581Z,60.86
2024-02-24T17:53:00.881Z,60.13
2024-02-24T17:55:29.593Z,60.07
2024-02-24T17:57:57.636Z,60.01
2024-02-24T18:00:27.516Z,59.91
2024-02-24T18:02:56.085Z,60.47
2024-02-24T18:05:24.606Z,60.07
2024-02-24T18:07:54.007Z,60.81
2024-02-24T18:10:22.293Z,60.77
2024-02-24T18:12:51.722Z,60.89
2024-02-24T18:15:20.444Z,61.31
2024-02-24T18:17:48.637Z,61.10
2024-02-24T18:20:16.964Z,61.09
2024-02-24T18:22:45.513Z,61.41
2024-02-24T18:25:14.003Z,61.36
2024-02-24T18:27:42.075Z,61.37
2024-02-24T18:30:10.470Z,61.38
2024-02-24T18:32:38.932Z,61.62
2024-02-24T18:35:07.293Z,61.88
2024-02-24T18:37:35.334Z,61.39
2024-02-24T18:40:06.293Z,61.86
2024-02-24T18:42:34.666Z,61.98
2024-02-24T18:45:04.319Z,61.76
2024-02-24T18:47:32.696Z,61.46
2024-02-24T18:50:00.771Z,62.38
2024-02-24T18:52:29.336Z,62.41
2024-02-24T18:54:57.348Z,62.48
2024-02-24T18:57:25.500Z,62.62
2024-02-24T18:59:54.230Z,62.31
2024-02-24T19:02:22.745Z,62.21
2024-02-24T19:04:52.050Z,62.10
2024-02-24T19:07:20.139Z,62.55
2024-02-24T19:09:48.177Z,62.56
2024-02-24T19:12:17.488Z,62.85
2024-02-24T19:14:51.976Z,62.57
2024-02-24T19:17:23.549Z,61.95
2024-02-24T19:19:53.293Z,62.32
2024-02-24T19:22:21.296Z,62.60
2024-02-24T19:24:49.747Z,62.87
2024-02-24T19:27:17.650Z,63.11
2024-02-24T19:29:46.189Z,63.59
2024-02-24T19:32:14.307Z,63.30
2024-02-24T19:34:42.467Z,63.48
2024-02-24T19:37:11.170Z,63.45
2024-02-24T19:39:39.267Z,63.50
2024-02-24T19:42:07.466Z,63.67
2024-02-24T19:44:36.099Z,63.49
2024-02-24T19:47:11.130Z,63.96
2024-02-24T19:49:39.678Z,63.61
2024-02-24T19:52:08.436Z,63.63
2024-02-24T19:54:36.549Z,64.13
2024-02-24T19:57:04.946Z,64.51
2024-02-24T19:59:34.120Z,64.57
2024-02-24T20:02:02.385Z,64.27
2024-02-24T20:04:31.401Z,64.49
2024-02-24T20:06:59.631Z,64.68
2024-02-24T20:09:27.815Z,64.43
2024-02-24T20:11:55.812Z,64.14
2024-02-24T20:14:24.057Z,63.72
2024-02-24T20:16:52.222Z,63.39
2024-02-24T20:19:20.322Z,63.20
2024-02-24T20:21:48.442Z,63.57
2024-02-24T20:24:17.039Z,63.56
2024-02-24T20:26:45.154Z,63.55
2024-02-24T20:29:13.439Z,63.28
2024-02-24T20:31:41.586Z,63.55
2024-02-24T20:34:09.930Z,63.68
2024-02-24T20:36:38.058Z,63.96
2024-02-24T20:39:07.349Z,64.30
2024-02-24T20:41:42.209Z,63.79
2024-02-24T20:44:10.332Z,64.07
2024-02-24T20:46:45.926Z,64.50
2024-02-24T20:49:18.965Z,64.47
2024-02-24T20:51:47.415Z,64.57
2024-02-24T20:54:15.538Z,64.65
2024-02-24T20:56:43.994Z,64.91
2024-02-24T20:59:12.387Z,64.48
2024-02-24T21:01:40.613Z,64.29
2024-02-24T21:04:08.693Z,64.28
2024-02-24T21:06:36.885Z,64.27
2024-02-24T21:09:07.678Z,64.11
2024-02-24T21:11:35.989Z,64.25
2024-02-24T21:14:04.233Z,64.68
2024-02-24T21:16:32.677Z,64.71
2024-02-24T21:19:00.949Z,64.84
2024-02-24T21:21:29.219Z,65.29
2024-02-24T21:23:57.379Z,65.55
2024-02-24T21:26:25.549Z,65.77
2024-02-24T21:28:53.894Z,65.82
2024-02-24T21:31:22.747Z,65.65
2024-02-24T21:33:50.980Z,65.87
2024-02-24T21:36:22.139Z,65.59
2024-02-24T21:38:50.453Z,65.28
2024-02-24T21:41:21.515Z,65.47
2024-02-24T21:43:49.557Z,66.18
2024-02-24T21:46:17.554Z,66.50
2024-02-24T21:48:45.847Z,66.38
2024-02-24T21:51:13.984Z,66.68
2024-02-24T21:53:42.051Z,66.57
2024-02-24T21:56:10.110Z,66.67
2024-02-24T21:58:38.439Z,66.93
2024-02-24T22:01:06.550Z,66.88
2024-02-24T22:03:35.251Z,67.05
2024-02-24T22:06:04.056Z,67.33
2024-02-24T22:08:32.083Z,66.96
2024-02-24T22:11:00.453Z,66.70
2024-02-24T22:13:28.772Z,66.36
2024-02-24T22:15:59.160Z,66.67
2024-02-24T22:18:27.217Z,66.97
2024-02-24T22:20:55.368Z,67.26
2024-02-24T22:23:23.504Z,67.48
2024-02-24T22:25:51.418Z,67.86
2024-02-24T22:28:19.432Z,67.67
2024-02-24T22:30:47.502Z,67.66
2024-02-24T22:33:15.648Z,68.12
2024-02-24T22:35:43.718Z,68.41
2024-02-24T22:38:12.095Z,68.08
2024-02-24T22:40:40.093Z,67.59
2024-02-24T22:43:08.006Z,68.16
2024-02-24T22:45:36.096Z,67.71
2024-02-24T22:48:04.535Z,67.96
2024-02-24T22:50:33.327Z,68.80
2024-02-24T22:53:01.269Z,68.57
2024-02-24T22:55:29.457Z,68.37
2024-02-24T22:57:57.412Z,68.73
2024-02-24T23:00:25.372Z,69.28
2024-02-24T23:02:53.977Z,69.19
2024-02-24T23:05:22.233Z,69.22
2024-02-24T23:07:50.381Z,68.74
2024-02-24T23:10:18.392Z,69.60
2024-02-24T23:12:46.472Z,70.24
2024-02-24T23:15:14.500Z,69.18
2024-02-24T23:17:44.704Z,69.45
2024-02-24T23:20:13.007Z,69.31
2024-02-24T23:22:40.939Z,69.64
2024-02-24T23:25:09.099Z,69.49
2024-02-24T23:27:37.099Z,69.67
2024-02-24T23:30:05.701Z,69.94
2024-02-24T23:32:33.808Z,69.93
2024-02-24T23:35:01.846Z,69.67
2024-02-24T23:37:29.856Z,69.93
2024-02-24T23:39:57.980Z,69.49
2024-02-24T23:42:25.970Z,69.83
2024-02-24T23:44:54.250Z,69.86
2024-02-24T23:47:22.338Z,69.90
2024-02-24T23:49:50.546Z,71.62
2024-02-24T23:52:18.981Z,71.97
2024-02-24T23:54:46.889Z,70.58
2024-02-24T23:57:14.978Z,70.31
2024-02-24T23:59:43.232Z,70.41
